Time;durP1;ratioP1;P1;durP2;ratioP2;P2;SDS_P1;SDS_P2;PMS_P1;PMS_P2;Temp;Humidity;BMP_temperature;BMP_pressure;BME280_temperature;BME280_humidity;BME280_pressure;Samples;Min_cycle;Max_cycle;Signal;HPM_P1;HPM_P2
2021/03/06 00:01:00;;;;;;;0.50;0.50;;;;;;;1.67;70.89;98117.13;1609056;89;21223;-62
2021/03/06 00:03:30;;;;;;;0.50;0.50;;;;;;;1.67;70.51;98114.56;1608995;89;21184;-62
2021/03/06 00:05:59;;;;;;;0.62;0.30;;;;;;;1.66;71.63;98121.03;1608979;89;21633;-65
2021/03/06 00:08:27;;;;;;;0.50;0.30;;;;;;;1.61;70.22;98134.08;1608919;89;21172;-62
2021/03/06 00:11:00;;;;;;;0.65;0.65;;;;;;;1.62;69.37;98144.70;1608945;89;21613;-63
2021/03/06 00:13:35;;;;;;;0.05;0.05;;;;;;;1.61;69.26;98134.53;1608868;89;21156;-64
2021/03/06 00:16:05;;;;;;;0.42;0.40;;;;;;;1.58;68.58;98144.94;1609056;89;21199;-62
2021/03/06 00:18:35;;;;;;;0.50;0.50;;;;;;;1.55;69.08;98136.98;1608962;89;21255;-62
2021/03/06 00:21:06;;;;;;;0.45;0.45;;;;;;;1.50;69.50;98141.97;1608802;89;21192;-63
2021/03/06 00:23:36;;;;;;;2.37;0.40;;;;;;;1.46;68.90;98153.27;1607376;89;21196;-62
2021/03/06 00:26:06;;;;;;;0.60;0.50;;;;;;;1.41;68.16;98153.52;1608903;89;21234;-61
2021/03/06 00:28:34;;;;;;;0.98;0.42;;;;;;;1.39;68.25;98140.82;1609015;89;21153;-61
2021/03/06 00:31:03;;;;;;;1.92;1.05;;;;;;;1.35;68.18;98144.45;1608868;89;21180;-62
2021/03/06 00:33:31;;;;;;;0.20;0.20;;;;;;;1.32;68.55;98139.95;1608950;89;21211;-62
2021/03/06 00:36:07;;;;;;;1.32;0.57;;;;;;;1.30;68.50;98148.97;1608764;89;21160;-62
2021/03/06 00:38:36;;;;;;;0.25;0.23;;;;;;;1.29;68.84;98138.80;1608202;88;21196;-61
2021/03/06 00:41:05;;;;;;;1.07;0.45;;;;;;;1.27;68.44;98124.83;1609159;89;21176;-66
2021/03/06 00:43:33;;;;;;;0.30;0.30;;;;;;;1.26;68.14;98128.30;1609127;89;21196;-61
2021/03/06 00:46:04;;;;;;;0.72;0.65;;;;;;;1.14;69.82;98124.27;1609093;89;21197;-61
2021/03/06 00:48:33;;;;;;;0.23;0.23;;;;;;;1.11;69.78;98127.83;1609005;89;21188;-61
2021/03/06 00:51:02;;;;;;;0.35;0.28;;;;;;;1.07;68.15;98135.28;1608726;89;21637;-61
2021/03/06 00:53:30;;;;;;;0.70;0.70;;;;;;;0.97;69.09;98124.34;1608847;89;21188;-62
2021/03/06 00:55:59;;;;;;;0.30;0.30;;;;;;;0.99;68.57;98126.34;1608856;89;21621;-61
2021/03/06 00:58:28;;;;;;;0.70;0.70;;;;;;;0.98;67.87;98124.69;1608830;89;21192;-62
2021/03/06 01:01:01;;;;;;;0.50;0.45;;;;;;;0.93;68.40;98131.34;1608984;89;21183;-63
2021/03/06 01:03:30;;;;;;;0.53;0.23;;;;;;;0.85;68.51;98133.02;1608814;89;21160;-63
2021/03/06 01:06:00;;;;;;;0.20;0.20;;;;;;;0.85;68.17;98144.53;1609059;89;21192;-63
2021/03/06 01:08:28;;;;;;;1.05;0.47;;;;;;;0.82;68.68;98147.66;1608935;89;21215;-63
2021/03/06 01:10:56;;;;;;;0.35;0.28;;;;;;;0.83;69.21;98140.38;1608818;89;21283;-61
2021/03/06 01:13:26;;;;;;;0.60;0.60;;;;;;;0.84;68.45;98140.76;1608889;89;21612;-61
2021/03/06 01:15:54;;;;;;;0.42;0.35;;;;;;;0.77;68.77;98139.42;1608819;89;21223;-61
2021/03/06 01:18:30;;;;;;;;;;;;;;;0.73;68.76;98149.42;1611423;89;21184;-62
2021/03/06 01:21:01;;;;;;;0.53;0.53;;;;;;;0.68;68.61;98135.59;1608932;89;20169;-61
2021/03/06 01:23:29;;;;;;;0.20;0.20;;;;;;;0.65;68.06;98134.93;1608781;89;21180;-61
2021/03/06 01:25:57;;;;;;;0.20;0.20;;;;;;;0.65;67.37;98136.20;1608900;89;21577;-61
2021/03/06 01:28:25;;;;;;;0.42;0.35;;;;;;;0.61;67.69;98140.65;1608630;89;21262;-62
2021/03/06 01:30:54;;;;;;;0.42;0.42;;;;;;;0.57;67.56;98152.38;1608851;89;21184;-62
2021/03/06 01:33:24;;;;;;;0.20;0.20;;;;;;;0.60;66.90;98168.38;1608830;89;21672;-61
2021/03/06 01:35:53;;;;;;;0.10;0.10;;;;;;;0.56;67.22;98177.09;1608971;89;21152;-61
2021/03/06 01:38:21;;;;;;;1.52;0.53;;;;;;;0.57;66.45;98166.42;1608741;89;21164;-61
2021/03/06 01:40:50;;;;;;;0.10;0.10;;;;;;;0.54;66.88;98162.75;1608920;89;21187;-61
2021/03/06 01:43:20;;;;;;;0.45;0.45;;;;;;;0.52;66.74;98170.48;1609151;89;21318;-61
2021/03/06 01:45:48;;;;;;;0.40;0.37;;;;;;;0.47;67.45;98180.92;1608706;89;21604;-61
2021/03/06 01:48:16;;;;;;;0.28;0.28;;;;;;;0.48;66.90;98184.31;1608637;89;21195;-62
2021/03/06 01:50:46;;;;;;;0.53;0.45;;;;;;;0.43;67.12;98196.02;1608752;89;21200;-63
2021/03/06 01:53:15;;;;;;;1.27;0.25;;;;;;;0.44;66.82;98194.30;1608850;89;21192;-61
2021/03/06 01:55:47;;;;;;;0.90;0.75;;;;;;;0.39;67.17;98209.02;1608868;89;21196;-65
2021/03/06 01:58:16;;;;;;;0.37;0.37;;;;;;;0.37;66.61;98201.45;1612010;87;21200;-63
2021/03/06 02:00:47;;;;;;;0.50;0.42;;;;;;;0.35;66.32;98202.43;1615066;88;21573;-65
2021/03/06 02:03:16;;;;;;;0.55;0.40;;;;;;;0.31;66.27;98203.48;1616926;88;21266;-63
2021/03/06 02:05:45;;;;;;;0.37;0.37;;;;;;;0.26;66.45;98217.74;1616895;88;21159;-63
2021/03/06 02:08:15;;;;;;;0.33;0.33;;;;;;;0.26;66.08;98207.97;1616786;87;21778;-64
2021/03/06 02:10:46;;;;;;;0.40;0.30;;;;;;;0.11;66.63;98209.53;1617059;88;21187;-61
2021/03/06 02:13:51;;;;;;;0.55;0.53;;;;;;;0.13;66.54;98214.10;1617161;88;21140;-64
2021/03/06 02:16:51;;;;;;;0.53;0.45;;;;;;;0.03;66.82;98214.61;1617092;88;21195;-61
2021/03/06 02:20:17;;;;;;;1.47;0.60;;;;;;;0.03;66.51;98221.83;1678517;85;21206;-65
2021/03/06 02:23:20;;;;;;;0.57;0.35;;;;;;;-0.07;66.66;98232.06;1678641;85;21596;-64
2021/03/06 02:26:35;;;;;;;0.40;0.30;;;;;;;-0.05;66.62;98234.95;1635589;86;21194;-64
2021/03/06 02:29:28;;;;;;;0.30;0.30;;;;;;;-0.15;66.48;98226.04;1636036;86;21143;-64
2021/03/06 02:31:59;;;;;;;0.78;0.60;;;;;;;-0.11;66.02;98228.00;1635873;86;21152;-64
2021/03/06 02:34:31;;;;;;;2.25;0.40;;;;;;;-0.05;66.04;98231.56;1635921;86;21203;-64
2021/03/06 02:37:07;;;;;;;0.40;0.40;;;;;;;-0.14;66.26;98259.61;1636068;86;21636;-64
2021/03/06 02:39:40;;;;;;;0.88;0.50;;;;;;;-0.12;65.94;98251.89;1639165;86;21151;-64
2021/03/06 02:42:29;;;;;;;0.40;0.40;;;;;;;-0.11;65.84;98246.70;1635933;86;21652;-64
2021/03/06 02:44:59;;;;;;;2.15;0.70;;;;;;;-0.17;66.18;98253.82;1674748;86;21186;-64
2021/03/06 02:47:27;;;;;;;1.10;0.70;;;;;;;-0.13;66.00;98248.95;1665566;86;21186;-65
2021/03/06 02:50:16;;;;;;;0.75;0.75;;;;;;;-0.14;65.77;98250.67;1581741;90;21195;-65
2021/03/06 02:52:44;;;;;;;0.65;0.62;;;;;;;-0.17;65.79;98271.69;1592320;90;21407;-65
2021/03/06 02:55:13;;;;;;;0.30;0.30;;;;;;;-0.17;65.76;98275.07;1581717;91;21232;-65
2021/03/06 02:58:04;;;;;;;1.35;0.93;;;;;;;-0.21;65.72;98274.83;1592201;89;21251;-65
2021/03/06 03:00:47;;;;;;;0.17;0.17;;;;;;;-0.21;65.72;98274.83;1581918;91;21620;-63
2021/03/06 03:03:41;;;;;;;1.07;0.60;;;;;;;-0.09;65.26;98288.32;1592412;90;21300;-64
2021/03/06 03:06:32;;;;;;;0.30;0.30;;;;;;;-0.07;65.23;98294.61;1581710;89;21175;-63
2021/03/06 03:09:08;;;;;;;0.55;0.47;;;;;;;-0.08;65.26;98297.61;1612864;89;21187;-63
2021/03/06 03:12:16;;;;;;;0.72;0.62;;;;;;;-0.04;65.06;98303.44;1641681;87;21591;-63
2021/03/06 03:14:53;;;;;;;0.50;0.50;;;;;;;-0.09;65.04;98311.30;1641842;87;21191;-65
2021/03/06 03:17:46;;;;;;;0.40;0.40;;;;;;;-0.08;65.07;98319.30;1646656;87;21186;-66
2021/03/06 03:20:34;;;;;;;1.32;0.60;;;;;;;-0.08;64.88;98323.61;1610277;89;21627;-62
2021/03/06 03:23:22;;;;;;;1.27;0.68;;;;;;;-0.10;64.88;98320.28;1672388;86;21162;-64
2021/03/06 03:26:08;;;;;;;1.52;0.60;;;;;;;-0.18;65.07;98318.52;1672716;86;21241;-63
2021/03/06 03:28:40;;;;;;;0.35;0.35;;;;;;;-0.24;65.21;98308.59;1672841;86;21183;-63
2021/03/06 03:31:11;;;;;;;1.55;0.50;;;;;;;-0.17;65.03;98316.35;1672688;86;21206;-63
2021/03/06 03:33:42;;;;;;;2.17;0.80;;;;;;;-0.20;65.11;98345.84;1672753;85;21174;-65
2021/03/06 03:36:12;;;;;;;0.20;0.20;;;;;;;-0.28;65.59;98338.53;1672570;85;21190;-68
2021/03/06 03:38:45;;;;;;;1.50;1.12;;;;;;;-0.27;65.45;98329.95;1672630;86;21608;-63
2021/03/06 03:41:14;;;;;;;1.62;0.95;;;;;;;-0.28;65.53;98350.02;1672456;86;21207;-63
2021/03/06 03:43:43;;;;;;;1.15;0.80;;;;;;;-0.21;65.24;98346.73;1672577;86;21647;-64
2021/03/06 03:46:13;;;;;;;0.62;0.60;;;;;;;-0.20;65.32;98344.57;1672490;86;21207;-64
2021/03/06 03:48:44;;;;;;;2.12;0.93;;;;;;;-0.22;65.28;98355.28;1672979;86;21151;-63
2021/03/06 03:51:17;;;;;;;0.55;0.55;;;;;;;-0.26;65.54;98359.69;1672737;86;21183;-69
2021/03/06 03:53:47;;;;;;;0.53;0.40;;;;;;;-0.22;65.30;98367.59;1672611;86;21592;-64
2021/03/06 03:56:18;;;;;;;0.28;0.28;;;;;;;-0.20;65.15;98360.72;1670983;85;21183;-62
2021/03/06 03:58:49;;;;;;;0.90;0.70;;;;;;;-0.23;64.73;98353.61;1672342;86;21230;-63
2021/03/06 04:01:19;;;;;;;1.45;0.95;;;;;;;-0.18;64.61;98361.47;1672473;86;21230;-63
2021/03/06 04:03:48;;;;;;;2.15;0.90;;;;;;;-0.23;65.23;98370.20;1672303;86;21623;-62
2021/03/06 04:06:16;;;;;;;0.80;0.53;;;;;;;-0.33;64.69;98368.51;1672473;86;21240;-63
2021/03/06 04:08:48;;;;;;;1.20;1.02;;;;;;;-0.29;64.86;98376.42;1672285;86;21634;-63
2021/03/06 04:11:18;;;;;;;1.22;0.70;;;;;;;-0.29;64.86;98376.42;1672753;86;21182;-64
2021/03/06 04:13:46;;;;;;;0.55;0.55;;;;;;;-0.33;65.00;98402.13;1672440;86;21186;-62
2021/03/06 04:16:18;;;;;;;0.95;0.72;;;;;;;-0.34;64.38;98391.53;1672606;86;21194;-63
2021/03/06 04:18:46;;;;;;;0.35;0.35;;;;;;;-0.34;64.38;98391.53;1672516;86;21226;-63
2021/03/06 04:21:15;;;;;;;0.50;0.50;;;;;;;-0.35;64.87;98401.37;1672349;86;21190;-63
2021/03/06 04:23:47;;;;;;;0.37;0.37;;;;;;;-0.38;64.50;98402.31;1672253;86;21170;-63
2021/03/06 04:26:16;;;;;;;0.40;0.40;;;;;;;-0.38;64.50;98402.31;1665867;86;21815;-65
2021/03/06 04:28:44;;;;;;;1.15;0.95;;;;;;;-0.40;64.45;98405.39;1666167;86;21191;-64
2021/03/06 04:31:12;;;;;;;0.53;0.40;;;;;;;-0.40;64.51;98420.70;1665910;86;21166;-63
2021/03/06 04:33:40;;;;;;;0.80;0.80;;;;;;;-0.42;64.31;98440.77;1666114;86;21565;-64
2021/03/06 04:36:25;;;;;;;0.30;0.30;;;;;;;-0.45;64.30;98432.81;1705083;83;21314;-64
2021/03/06 04:38:53;;;;;;;2.25;0.72;;;;;;;-0.47;63.95;98428.67;1705247;83;21735;-65
2021/03/06 04:41:23;;;;;;;0.15;0.15;;;;;;;-0.49;63.91;98430.00;1705035;83;21639;-67
2021/03/06 04:43:52;;;;;;;0.85;0.62;;;;;;;-0.52;63.95;98433.96;1705125;83;21593;-66
2021/03/06 04:46:21;;;;;;;0.45;0.30;;;;;;;-0.51;63.81;98433.08;1704811;84;21318;-64
2021/03/06 04:48:51;;;;;;;2.17;0.50;;;;;;;-0.59;64.13;98437.66;1704766;84;21572;-64
2021/03/06 04:51:41;;;;;;;0.10;0.10;;;;;;;-0.58;63.96;98432.48;1704760;83;21159;-66
2021/03/06 04:54:23;;;;;;;0.23;0.23;;;;;;;-0.62;63.98;98450.52;1693504;85;21141;-64
2021/03/06 04:56:54;;;;;;;2.47;0.70;;;;;;;-0.65;63.91;98451.48;1694794;84;21292;-64
2021/03/06 04:59:22;;;;;;;0.30;0.28;;;;;;;-0.69;64.18;98466.52;1695183;85;21311;-63
2021/03/06 05:01:58;;;;;;;;;;;;;;;-0.74;64.34;98448.02;1697405;85;21130;-63
2021/03/06 05:04:26;;;;;;;0.40;0.40;;;;;;;-0.75;64.53;98453.19;1694641;85;20171;-64
2021/03/06 05:06:59;;;;;;;1.52;1.37;;;;;;;-0.80;64.85;98466.56;1693574;84;21142;-64
2021/03/06 05:09:27;;;;;;;0.60;0.60;;;;;;;-0.79;64.40;98479.70;1694758;85;21126;-64
2021/03/06 05:11:57;;;;;;;7.55;0.75;;;;;;;-0.81;64.34;98473.38;1695064;85;21146;-64
2021/03/06 05:14:27;;;;;;;0.85;0.82;;;;;;;-0.81;64.21;98486.56;1694823;85;21129;-67
2021/03/06 05:16:57;;;;;;;0.10;0.10;;;;;;;-0.80;64.22;98469.94;1695021;85;21351;-64
2021/03/06 05:19:25;;;;;;;0.47;0.30;;;;;;;-0.82;64.68;98475.56;1694737;85;21554;-63
2021/03/06 05:21:54;;;;;;;0.35;0.20;;;;;;;-0.83;64.27;98459.04;1694931;85;21319;-64
2021/03/06 05:24:22;;;;;;;0.60;0.55;;;;;;;-0.78;64.30;98466.08;1694856;85;21149;-65
2021/03/06 05:27:01;;;;;;;0.80;0.80;;;;;;;-0.82;65.09;98466.64;1691027;85;21284;-63
2021/03/06 05:29:33;;;;;;;0.20;0.20;;;;;;;-0.81;65.22;98473.38;1694573;85;21211;-64
2021/03/06 05:32:05;;;;;;;0.65;0.65;;;;;;;-0.74;64.42;98484.19;1694637;84;21157;-69
2021/03/06 05:34:34;;;;;;;1.17;0.93;;;;;;;-0.74;64.46;98499.02;1694642;85;21343;-64
2021/03/06 05:37:04;;;;;;;0.72;0.72;;;;;;;-0.74;64.46;98499.02;1694570;85;21586;-64
2021/03/06 05:39:32;;;;;;;0.85;0.85;;;;;;;-0.76;65.00;98519.10;1694542;85;21157;-64
2021/03/06 05:42:01;;;;;;;1.82;1.22;;;;;;;-0.69;64.51;98519.24;1694429;85;21562;-65
2021/03/06 05:44:38;;;;;;;0.20;0.20;;;;;;;-0.66;63.99;98520.42;1668259;85;21164;-64
2021/03/06 05:47:06;;;;;;;1.20;0.78;;;;;;;-0.63;63.90;98535.16;1694227;84;21157;-64
2021/03/06 05:49:35;;;;;;;0.40;0.30;;;;;;;-0.56;63.81;98561.25;1694424;84;21232;-64
2021/03/06 05:52:25;;;;;;;0.95;0.78;;;;;;;-0.56;63.81;98561.25;1694344;83;21173;-65
2021/03/06 05:54:56;;;;;;;0.60;0.60;;;;;;;-0.51;63.58;98553.78;1695743;84;21207;-65
2021/03/06 05:57:26;;;;;;;0.65;0.60;;;;;;;-0.47;63.66;98558.80;1694887;85;21690;-70
2021/03/06 05:59:55;;;;;;;0.10;0.10;;;;;;;-0.41;63.15;98558.54;1694921;85;21568;-64
2021/03/06 06:02:23;;;;;;;1.52;0.68;;;;;;;-0.36;62.53;98570.67;1694882;84;21131;-64
2021/03/06 06:04:52;;;;;;;0.62;0.30;;;;;;;-0.34;62.94;98572.70;1694946;85;21596;-64
2021/03/06 06:07:25;;;;;;;0.75;0.60;;;;;;;-0.34;62.94;98572.70;1694670;84;21774;-64
2021/03/06 06:09:55;;;;;;;0.98;0.68;;;;;;;-0.33;62.51;98573.09;1695037;85;21305;-64
2021/03/06 06:12:23;;;;;;;0.40;0.30;;;;;;;-0.33;62.51;98573.09;1695400;85;21604;-66
2021/03/06 06:14:51;;;;;;;0.35;0.20;;;;;;;-0.27;61.87;98604.78;1695113;85;21170;-69
2021/03/06 06:17:24;;;;;;;0.68;0.50;;;;;;;-0.27;61.87;98604.78;1695601;85;21166;-64
2021/03/06 06:19:53;;;;;;;1.10;0.70;;;;;;;-0.27;61.87;98594.56;1695191;85;21206;-66
2021/03/06 06:22:24;;;;;;;2.58;0.45;;;;;;;-0.24;61.77;98599.10;1694784;84;21324;-67
2021/03/06 06:24:54;;;;;;;0.35;0.35;;;;;;;-0.21;61.67;98611.73;1695609;85;21159;-64
2021/03/06 06:27:32;;;;;;;0.40;0.37;;;;;;;-0.20;61.27;98620.23;1694599;84;21146;-64
2021/03/06 06:30:11;;;;;;;0.47;0.35;;;;;;;-0.18;60.95;98616.72;1695077;84;21135;-64
2021/03/06 06:32:45;;;;;;;0.82;0.82;;;;;;;-0.18;60.89;98621.82;1694408;85;21116;-64
2021/03/06 06:35:16;;;;;;;0.68;0.60;;;;;;;-0.17;60.89;98623.93;1694736;84;21591;-65
2021/03/06 06:38:23;;;;;;;0.90;0.78;;;;;;;-0.19;60.86;98634.63;1694897;85;21155;-65
2021/03/06 06:41:13;;;;;;;0.82;0.68;;;;;;;-0.22;60.77;98635.59;1693484;84;21141;-66
2021/03/06 06:43:41;;;;;;;0.20;0.20;;;;;;;-0.20;60.37;98642.77;1726181;83;21156;-64
2021/03/06 06:46:13;;;;;;;0.35;0.35;;;;;;;-0.24;60.55;98653.98;1716434;83;21165;-64
2021/03/06 06:49:20;;;;;;;2.05;0.90;;;;;;;-0.25;60.15;98649.76;1712647;83;21589;-64
2021/03/06 06:52:22;;;;;;;1.50;0.70;;;;;;;-0.19;60.37;98655.88;1687804;84;21145;-64
2021/03/06 06:54:58;;;;;;;1.27;0.68;;;;;;;-0.22;60.19;98662.39;1663056;85;21977;-63
2021/03/06 06:57:28;;;;;;;0.82;0.80;;;;;;;-0.23;60.21;98670.09;1663283;85;21196;-64
2021/03/06 07:00:08;;;;;;;2.72;1.02;;;;;;;-0.25;60.00;98665.07;1658507;85;21196;-65
2021/03/06 07:02:36;;;;;;;0.68;0.50;;;;;;;-0.23;59.87;98671.38;1657710;85;21195;-65
2021/03/06 07:05:08;;;;;;;1.62;0.70;;;;;;;-0.22;59.55;98673.05;1657711;85;21628;-64
2021/03/06 07:10:56;;;;;;;3.67;1.27;;;;;;;-0.25;59.39;98677.00;1696863;84;21165;-64
2021/03/06 07:13:41;;;;;;;0.82;0.57;;;;;;;-0.30;59.40;98670.78;1683288;84;21598;-65
2021/03/06 07:16:14;;;;;;;0.37;0.33;;;;;;;-0.27;59.70;98674.48;1638988;86;21182;-65
2021/03/06 07:18:42;;;;;;;1.02;0.70;;;;;;;-0.14;58.96;98685.07;1671726;84;21198;-64
2021/03/06 07:21:11;;;;;;;0.20;0.20;;;;;;;-0.14;58.96;98685.07;1639677;86;21179;-65
2021/03/06 07:23:40;;;;;;;0.37;0.37;;;;;;;0.11;58.92;98690.06;1673524;84;21231;-65
2021/03/06 07:26:11;;;;;;;0.30;0.30;;;;;;;0.48;58.48;98697.45;1639640;86;21593;-65
2021/03/06 07:28:45;;;;;;;0.23;0.23;;;;;;;0.48;58.48;98697.45;1672268;84;21588;-65
2021/03/06 07:31:17;;;;;;;2.17;0.55;;;;;;;0.63;57.34;98702.83;1639767;86;21199;-65
2021/03/06 07:33:45;;;;;;;0.95;0.82;;;;;;;0.74;57.06;98701.95;1672368;84;21266;-65
2021/03/06 07:36:13;;;;;;;1.22;0.80;;;;;;;0.89;57.24;98702.59;1639759;86;21183;-65
2021/03/06 07:38:44;;;;;;;2.47;0.35;;;;;;;1.05;56.54;98710.44;1671499;84;21199;-65
2021/03/06 07:41:23;;;;;;;0.40;0.37;;;;;;;1.21;56.25;98710.13;1639736;86;21641;-64
2021/03/06 07:43:54;;;;;;;0.20;0.20;;;;;;;1.34;56.51;98712.55;1630344;87;21211;-64
2021/03/06 07:46:25;;;;;;;0.53;0.20;;;;;;;1.43;55.11;98712.16;1639410;86;21262;-65
2021/03/06 07:48:56;;;;;;;0.65;0.30;;;;;;;1.50;54.89;98719.11;1639583;85;21190;-65
2021/03/06 07:51:26;;;;;;;0.10;0.10;;;;;;;1.56;54.82;98712.41;1639195;86;21220;-65
2021/03/06 07:53:54;;;;;;;0.80;0.62;;;;;;;1.60;54.52;98715.22;1672199;84;21196;-65
2021/03/06 07:56:31;;;;;;;0.33;0.30;;;;;;;1.66;54.07;98706.00;1639401;86;21651;-65
2021/03/06 07:59:04;;;;;;;0.90;0.50;;;;;;;1.74;54.08;98714.17;1669563;84;21266;-64
2021/03/06 08:01:34;;;;;;;0.45;0.30;;;;;;;1.77;54.24;98715.30;1672302;84;21168;-65
2021/03/06 08:04:26;;;;;;;1.85;0.50;;;;;;;1.84;53.54;98724.36;1639601;86;21632;-65
2021/03/06 08:07:13;;;;;;;0.95;0.90;;;;;;;1.91;53.51;98715.04;1680665;84;21159;-64
2021/03/06 08:10:02;;;;;;;0.70;0.40;;;;;;;2.04;53.06;98734.52;1633820;86;21609;-64
2021/03/06 08:12:32;;;;;;;1.17;0.60;;;;;;;2.10;52.52;98732.14;1634547;86;21193;-64
2021/03/06 08:15:32;;;;;;;6.47;1.00;;;;;;;2.09;52.85;98745.84;1633941;86;21331;-64
2021/03/06 08:18:01;;;;;;;1.27;0.57;;;;;;;2.11;51.85;98735.06;1634276;86;21180;-64
2021/03/06 08:20:54;;;;;;;0.65;0.40;;;;;;;2.16;52.25;98743.37;1633934;86;21176;-64
2021/03/06 08:23:23;;;;;;;0.37;0.33;;;;;;;2.20;52.50;98738.48;1632054;85;21193;-64
2021/03/06 08:26:26;;;;;;;0.82;0.82;;;;;;;2.27;52.28;98746.25;1633982;88;21742;-70
2021/03/06 08:28:55;;;;;;;1.00;0.55;;;;;;;2.33;52.06;98750.63;1633946;87;21300;-64
2021/03/06 08:32:03;;;;;;;1.72;0.68;;;;;;;2.44;51.87;98754.44;1634160;88;21222;-65
2021/03/06 08:34:49;;;;;;;1.00;0.85;;;;;;;2.50;51.53;98755.41;1606626;88;21178;-65
2021/03/06 08:37:23;;;;;;;0.60;0.37;;;;;;;2.56;51.09;98762.38;1606650;88;21202;-65
2021/03/06 08:39:58;;;;;;;0.70;0.65;;;;;;;2.56;49.51;98775.20;1606705;88;21222;-65
2021/03/06 08:42:37;;;;;;;1.82;1.07;;;;;;;2.62;50.81;98752.26;1606481;88;21198;-65
2021/03/06 08:45:23;;;;;;;0.53;0.50;;;;;;;2.77;50.75;98756.64;1606503;88;21229;-65
2021/03/06 08:47:58;;;;;;;2.45;1.10;;;;;;;2.84;50.46;98766.52;1606273;88;21189;-65
2021/03/06 08:50:28;;;;;;;0.60;0.50;;;;;;;2.92;50.23;98771.28;1606688;88;21674;-65
2021/03/06 08:53:04;;;;;;;1.17;0.47;;;;;;;2.99;49.23;98777.80;1602882;88;21159;-65
2021/03/06 08:55:40;;;;;;;0.42;0.42;;;;;;;3.12;50.03;98769.84;1602842;88;21659;-65
2021/03/06 08:58:20;;;;;;;1.80;0.55;;;;;;;3.32;49.50;98789.37;1606691;88;21194;-65
2021/03/06 09:01:14;;;;;;;1.52;0.78;;;;;;;3.40;48.17;98773.13;1606709;88;21253;-65
2021/03/06 09:03:49;;;;;;;;;;;;;;;3.69;50.54;98776.77;1581225;91;21183;-65
2021/03/06 09:06:19;;;;;;;0.93;0.40;;;;;;;4.05;48.25;98777.37;1561515;90;20463;-64
2021/03/06 09:08:54;;;;;;;1.12;0.60;;;;;;;4.37;48.83;98779.48;1609277;89;21340;-64
2021/03/06 09:11:29;;;;;;;0.80;0.60;;;;;;;4.57;48.51;98777.93;1609269;89;21300;-64
2021/03/06 09:13:58;;;;;;;1.65;1.15;;;;;;;4.85;48.71;98781.52;1609278;89;21174;-65
2021/03/06 09:16:28;;;;;;;0.62;0.60;;;;;;;5.14;47.08;98791.80;1609236;89;21197;-64
2021/03/06 09:18:58;;;;;;;1.62;0.90;;;;;;;5.30;45.54;98799.45;1609607;89;21235;-65
2021/03/06 09:21:26;;;;;;;2.90;0.80;;;;;;;5.26;47.99;98774.80;1609390;89;21194;-65
2021/03/06 09:23:54;;;;;;;1.37;0.95;;;;;;;5.70;47.75;98786.34;1609200;88;21229;-65
2021/03/06 09:29:06;;;;;;;1.12;0.78;;;;;;;6.41;45.60;98797.42;1779967;79;22804;-65
2021/03/06 09:31:34;;;;;;;0.60;0.60;;;;;;;6.54;44.13;98795.70;1753189;82;21563;-64
2021/03/06 09:34:07;;;;;;;1.20;0.82;;;;;;;6.41;42.63;98796.59;1753306;82;21156;-65
2021/03/06 09:36:40;;;;;;;0.75;0.50;;;;;;;6.48;44.14;98797.40;1753331;82;21156;-65
2021/03/06 09:39:09;;;;;;;1.65;0.60;;;;;;;6.74;44.47;98797.02;1753436;82;21636;-64
2021/03/06 09:41:39;;;;;;;0.82;0.80;;;;;;;6.78;42.84;98802.34;1753435;82;21536;-65
2021/03/06 09:44:16;;;;;;;2.35;1.05;;;;;;;7.04;42.98;98794.22;1753404;82;21216;-64
2021/03/06 09:47:10;;;;;;;1.50;1.00;;;;;;;7.35;39.80;98797.73;1753228;80;21157;-64
2021/03/06 09:49:39;;;;;;;2.37;0.88;;;;;;;7.61;42.31;98803.72;1659808;85;21171;-62
2021/03/06 09:52:15;;;;;;;1.45;0.60;;;;;;;7.70;41.29;98799.69;1659740;85;21144;-65
2021/03/06 09:54:52;;;;;;;1.87;0.98;;;;;;;8.03;41.58;98802.54;1659838;86;21223;-62
2021/03/06 09:57:25;;;;;;;1.85;0.82;;;;;;;8.39;38.39;98789.65;1659761;86;21606;-65
2021/03/06 09:59:56;;;;;;;2.60;1.00;;;;;;;8.71;39.52;98807.23;1659677;86;21183;-64
2021/03/06 10:02:25;;;;;;;2.17;0.85;;;;;;;8.64;32.01;98805.53;1659466;86;21209;-64
2021/03/06 10:04:54;;;;;;;3.87;0.68;;;;;;;8.68;34.75;98759.06;1659732;86;21204;-65
2021/03/06 10:07:24;;;;;;;1.62;0.50;;;;;;;9.29;35.39;98812.87;1659895;86;21172;-65
2021/03/06 10:09:52;;;;;;;0.85;0.60;;;;;;;9.66;36.46;98809.63;1659589;86;21191;-63
2021/03/06 10:12:20;;;;;;;3.25;0.85;;;;;;;10.11;36.24;98816.96;1659629;86;21188;-63
2021/03/06 10:14:50;;;;;;;0.80;0.50;;;;;;;10.45;36.33;98809.52;1632305;86;21160;-63
2021/03/06 10:17:27;;;;;;;0.90;0.50;;;;;;;10.56;35.50;98819.04;1660005;86;21208;-67
2021/03/06 10:20:00;;;;;;;1.25;0.75;;;;;;;10.25;33.17;98822.76;1658572;85;21254;-63
2021/03/06 10:22:54;;;;;;;0.95;0.57;;;;;;;9.92;34.58;98814.97;1660143;86;21192;-63
2021/03/06 10:25:27;;;;;;;;;;;;;;;10.12;32.59;98819.42;1662324;86;21196;-64
2021/03/06 10:28:09;;;;;;;1.67;0.62;;;;;;;10.43;35.38;98820.47;1659972;86;20129;-69
2021/03/06 10:31:27;;;;;;;1.98;0.72;;;;;;;10.51;31.43;98826.36;1658785;85;21260;-64
2021/03/06 10:34:19;;;;;;;1.57;0.90;;;;;;;10.39;33.93;98832.88;1667363;86;21183;-64
2021/03/06 10:37:19;;;;;;;0.98;0.78;;;;;;;11.06;34.85;98822.77;1807231;78;23094;-62
2021/03/06 10:40:04;;;;;;;1.98;0.78;;;;;;;11.43;33.49;98835.25;1788329;80;21281;-67
2021/03/06 10:42:50;;;;;;;1.42;0.53;;;;;;;11.83;34.13;98827.55;1792733;80;21132;-63
2021/03/06 10:45:28;;;;;;;1.33;0.60;;;;;;;12.33;33.90;98818.52;1714586;82;21618;-64
2021/03/06 10:48:00;;;;;;;2.35;1.00;;;;;;;12.57;31.00;98825.48;1747614;81;21865;-62
2021/03/06 10:50:39;;;;;;;1.73;0.97;;;;;;;12.27;31.89;98839.87;1747664;81;21166;-65
2021/03/06 10:53:40;;;;;;;2.42;0.70;;;;;;;11.83;29.36;98827.55;1747169;81;21246;-64
2021/03/06 10:56:21;;;;;;;1.98;0.82;;;;;;;12.04;32.00;98835.80;1743738;81;21551;-64
2021/03/06 10:58:50;;;;;;;1.30;0.75;;;;;;;12.26;30.34;98831.23;1772180;81;21179;-64
2021/03/06 11:01:51;;;;;;;1.47;0.75;;;;;;;12.64;29.06;98814.89;1770646;80;21143;-63
2021/03/06 11:04:32;;;;;;;1.50;0.80;;;;;;;13.21;30.63;98814.59;1771286;80;21182;-63
2021/03/06 11:07:07;;;;;;;1.27;0.72;;;;;;;13.25;28.99;98810.27;1775977;80;21168;-62
2021/03/06 11:09:38;;;;;;;3.15;0.93;;;;;;;12.58;26.93;98814.58;1772238;80;21127;-64
2021/03/06 11:12:30;;;;;;;1.32;0.68;;;;;;;12.02;27.65;98822.94;1773243;80;21210;-62
2021/03/06 11:15:16;;;;;;;0.30;0.30;;;;;;;12.15;29.85;98813.58;1773938;80;21156;-64
2021/03/06 11:17:47;;;;;;;1.00;0.62;;;;;;;12.23;29.58;98807.23;1772457;80;21154;-65
2021/03/06 11:20:17;;;;;;;0.82;0.60;;;;;;;12.56;30.25;98796.97;1773487;80;21222;-62
2021/03/06 11:22:50;;;;;;;0.90;0.60;;;;;;;12.64;25.24;98796.65;1772965;80;21217;-62
2021/03/06 11:25:20;;;;;;;0.78;0.60;;;;;;;12.47;27.76;98794.69;1773511;79;21573;-64
2021/03/06 11:27:57;;;;;;;1.35;0.55;;;;;;;12.55;26.54;98797.45;1773134;80;21243;-64
2021/03/06 11:30:37;;;;;;;1.00;0.55;;;;;;;12.93;29.21;98799.25;1775484;80;21598;-63
2021/03/06 11:33:13;;;;;;;0.50;0.45;;;;;;;12.78;22.59;98797.55;1773005;80;21163;-64
2021/03/06 11:35:43;;;;;;;1.35;0.70;;;;;;;12.57;26.35;98805.94;1774143;80;21206;-64
2021/03/06 11:38:13;;;;;;;0.90;0.53;;;;;;;12.72;29.37;98796.77;1769145;80;21223;-64
2021/03/06 11:40:48;;;;;;;1.02;0.60;;;;;;;13.15;27.18;98791.69;1773728;80;21570;-64
2021/03/06 11:43:17;;;;;;;1.00;0.70;;;;;;;13.55;21.37;98796.20;1773452;80;21166;-64
2021/03/06 11:45:46;;;;;;;2.20;0.65;;;;;;;14.24;24.91;98797.09;1772779;79;21178;-64
2021/03/06 11:48:15;;;;;;;1.80;0.68;;;;;;;14.32;23.99;98798.50;1771710;80;21166;-64
2021/03/06 11:50:48;;;;;;;1.50;1.00;;;;;;;14.05;23.13;98796.71;1773379;80;21167;-64
2021/03/06 11:53:17;;;;;;;1.20;0.68;;;;;;;14.06;23.80;98794.45;1773793;81;21167;-64
2021/03/06 11:55:47;;;;;;;1.30;0.50;;;;;;;13.68;23.88;98799.81;1764342;80;21495;-64
2021/03/06 11:58:17;;;;;;;0.80;0.60;;;;;;;13.67;24.04;98791.64;1774250;81;21757;-65
2021/03/06 12:00:46;;;;;;;2.10;0.62;;;;;;;13.97;23.85;98794.00;1772421;81;21230;-66
2021/03/06 12:03:18;;;;;;;0.95;0.70;;;;;;;13.43;20.77;98797.80;1772533;80;21170;-64
2021/03/06 12:05:48;;;;;;;1.40;0.70;;;;;;;12.55;20.81;98804.44;1773334;81;21162;-63
2021/03/06 12:08:18;;;;;;;2.22;0.93;;;;;;;12.21;21.60;98809.98;1773479;81;21218;-66
2021/03/06 12:10:46;;;;;;;0.65;0.53;;;;;;;12.11;20.05;98797.87;1772445;81;21213;-65
2021/03/06 12:13:17;;;;;;;0.68;0.40;;;;;;;12.88;24.07;98800.14;1771566;80;21555;-64
2021/03/06 12:15:51;;;;;;;0.93;0.70;;;;;;;13.24;21.20;98800.78;1772054;80;21191;-64
2021/03/06 12:18:20;;;;;;;3.02;0.93;;;;;;;12.98;23.25;98804.89;1771031;80;21273;-63
2021/03/06 12:20:49;;;;;;;1.17;0.50;;;;;;;12.31;23.31;98809.52;1773402;81;21154;-65